createdAt,value
2018-04-18T00:00:04.925Z,6.28
2018-04-18T00:02:32.372Z,5.90
2018-04-18T00:04:59.806Z,5.87
2018-04-18T00:07:27.258Z,6.43
2018-04-18T00:09:54.687Z,6.18
2018-04-18T00:12:22.160Z,5.32
2018-04-18T00:14:49.604Z,6.35
2018-04-18T00:17:17.052Z,6.25
2018-04-18T00:19:44.481Z,6.45
2018-04-18T00:22:11.941Z,6.78
2018-04-18T00:24:39.385Z,6.22
2018-04-18T00:27:06.826Z,6.45
2018-04-18T00:29:34.278Z,6.20
2018-04-18T00:32:01.716Z,6.80
2018-04-18T00:34:29.166Z,6.28
2018-04-18T00:36:56.617Z,6.20
2018-04-18T00:39:24.065Z,6.62
2018-04-18T00:41:51.655Z,7.03
2018-04-18T00:44:19.101Z,8.32
2018-04-18T00:46:46.542Z,7.53
2018-04-18T00:49:13.984Z,8.30
2018-04-18T00:51:41.429Z,7.55
2018-04-18T00:54:08.880Z,7.85
2018-04-18T00:56:36.318Z,7.90
2018-04-18T00:59:03.767Z,7.43
2018-04-18T01:01:31.202Z,7.55
2018-04-18T01:03:58.641Z,7.22
2018-04-18T01:06:26.071Z,7.75
2018-04-18T01:08:53.519Z,8.23
2018-04-18T01:11:20.949Z,7.80
2018-04-18T01:13:48.388Z,7.28
2018-04-18T01:16:15.834Z,7.30
2018-04-18T01:18:43.292Z,7.28
2018-04-18T01:21:10.729Z,8.45
2018-04-18T01:23:38.179Z,7.45
2018-04-18T01:26:05.631Z,7.45
2018-04-18T01:28:33.089Z,7.45
2018-04-18T01:31:00.535Z,8.15
2018-04-18T01:33:27.993Z,7.50
2018-04-18T01:35:55.449Z,7.57
2018-04-18T01:38:22.909Z,7.80
2018-04-18T01:40:50.344Z,7.82
2018-04-18T01:43:17.785Z,7.70
2018-04-18T01:45:45.226Z,8.13
2018-04-18T01:48:12.680Z,6.70
2018-04-18T01:50:40.110Z,7.80
2018-04-18T01:53:07.550Z,7.57
2018-04-18T01:55:34.992Z,7.35
2018-04-18T01:58:02.432Z,7.43
2018-04-18T02:00:29.890Z,6.93
2018-04-18T02:02:57.334Z,6.87
2018-04-18T02:05:24.782Z,6.68
2018-04-18T02:07:52.229Z,7.65
2018-04-18T02:10:19.672Z,7.28
2018-04-18T02:12:47.103Z,7.60
2018-04-18T02:15:14.553Z,7.57
2018-04-18T02:17:41.993Z,7.95
2018-04-18T02:20:09.438Z,7.18
2018-04-18T02:22:36.890Z,7.78
2018-04-18T02:25:04.341Z,7.60
2018-04-18T02:27:31.795Z,7.57
2018-04-18T02:29:59.264Z,6.87
2018-04-18T02:32:26.712Z,6.95
2018-04-18T02:34:54.932Z,6.00
2018-04-18T02:37:22.394Z,6.90
2018-04-18T02:39:49.854Z,7.28
2018-04-18T02:42:17.313Z,7.12
2018-04-18T02:44:44.758Z,6.68
2018-04-18T02:47:12.220Z,7.85
2018-04-18T02:49:39.672Z,7.15
2018-04-18T02:52:07.892Z,7.93
2018-04-18T02:54:35.336Z,7.73
2018-04-18T02:57:02.791Z,7.78
2018-04-18T02:59:30.260Z,8.10
2018-04-18T03:01:57.699Z,8.13
2018-04-18T03:04:25.929Z,10.40
2018-04-18T03:06:53.368Z,10.93
2018-04-18T03:09:20.847Z,10.33
2018-04-18T03:11:48.314Z,10.02
2018-04-18T03:14:15.770Z,10.80
2018-04-18T03:16:43.237Z,10.13
2018-04-18T03:19:10.700Z,9.40
2018-04-18T03:21:38.159Z,9.77
2018-04-18T03:24:06.417Z,9.73
2018-04-18T03:26:33.915Z,8.87
2018-04-18T03:29:01.361Z,10.10
2018-04-18T03:31:28.813Z,9.30
2018-04-18T03:33:56.248Z,9.05
2018-04-18T03:36:23.696Z,8.40
2018-04-18T03:38:51.138Z,8.10
2018-04-18T03:41:18.600Z,9.17
2018-04-18T03:43:46.036Z,8.73
2018-04-18T03:46:13.501Z,9.17
2018-04-18T03:48:40.966Z,8.93
2018-04-18T03:51:08.424Z,9.17
2018-04-18T03:53:35.880Z,9.20
2018-04-18T03:56:03.350Z,8.63
2018-04-18T03:58:30.815Z,8.90
2018-04-18T04:00:58.267Z,8.97
2018-04-18T04:03:25.709Z,8.93
2018-04-18T04:05:53.150Z,8.73
2018-04-18T04:08:21.359Z,9.50
2018-04-18T04:10:48.815Z,9.83
2018-04-18T04:13:16.275Z,9.30
2018-04-18T04:15:43.747Z,9.93
2018-04-18T04:18:22.918Z,10.30
2018-04-18T04:21:02.251Z,9.70
2018-04-18T04:23:41.600Z,9.27
2018-04-18T04:26:09.821Z,9.07
2018-04-18T04:28:37.255Z,8.80
2018-04-18T04:31:04.712Z,9.00
2018-04-18T04:33:32.923Z,9.50
2018-04-18T04:36:00.377Z,8.67
2018-04-18T04:38:27.828Z,9.50
2018-04-18T04:40:55.292Z,9.53
2018-04-18T04:43:22.746Z,8.73
2018-04-18T04:45:50.981Z,10.03
2018-04-18T04:48:18.448Z,9.23
2018-04-18T04:50:45.909Z,10.40
2018-04-18T04:53:13.992Z,10.00
2018-04-18T04:55:41.454Z,9.70
2018-04-18T04:58:08.910Z,9.67
2018-04-18T05:00:36.365Z,9.97
2018-04-18T05:03:03.820Z,9.87
2018-04-18T05:05:31.265Z,9.67
2018-04-18T05:07:58.736Z,10.03
2018-04-18T05:10:26.202Z,11.90
2018-04-18T05:12:53.654Z,11.50
2018-04-18T05:15:21.104Z,10.30
2018-04-18T05:17:48.570Z,12.17
2018-04-18T05:20:16.020Z,11.33
2018-04-18T05:22:43.508Z,11.20
2018-04-18T05:25:10.982Z,12.13
2018-04-18T05:27:38.437Z,11.40
2018-04-18T05:30:05.899Z,10.60
2018-04-18T05:32:33.350Z,10.97
2018-04-18T05:35:00.815Z,10.33
2018-04-18T05:37:28.278Z,11.60
2018-04-18T05:39:55.735Z,12.17
2018-04-18T05:42:23.198Z,11.53
2018-04-18T05:44:50.673Z,11.87
2018-04-18T05:47:18.148Z,11.73
2018-04-18T05:49:45.604Z,12.63
2018-04-18T05:52:13.057Z,11.80
2018-04-18T05:54:40.536Z,11.83
2018-04-18T05:57:07.996Z,12.97
2018-04-18T05:59:36.211Z,11.83
2018-04-18T06:02:03.652Z,10.80
2018-04-18T06:04:31.101Z,11.80
2018-04-18T06:06:58.555Z,11.63
2018-04-18T06:09:26.013Z,11.50
2018-04-18T06:11:53.462Z,11.43
2018-04-18T06:14:20.917Z,12.73
2018-04-18T06:16:48.360Z,10.77
2018-04-18T06:19:16.655Z,12.77
2018-04-18T06:21:44.052Z,11.40
2018-04-18T06:24:11.499Z,12.17
2018-04-18T06:26:38.962Z,12.73
2018-04-18T06:29:06.427Z,12.60
2018-04-18T06:31:33.876Z,12.90
2018-04-18T06:34:01.345Z,12.90
2018-04-18T06:36:28.787Z,11.87
2018-04-18T06:38:56.244Z,12.10
2018-04-18T06:41:24.475Z,11.87
2018-04-18T06:43:51.930Z,10.60
2018-04-18T06:46:19.398Z,11.02
2018-04-18T06:48:46.858Z,11.73
2018-04-18T06:51:14.340Z,11.93
2018-04-18T06:53:41.777Z,12.32
2018-04-18T06:56:09.220Z,11.10
2018-04-18T06:58:36.678Z,11.25
2018-04-18T07:01:04.145Z,11.93
2018-04-18T07:03:31.638Z,11.93
2018-04-18T07:05:59.094Z,11.07
2018-04-18T07:08:26.540Z,10.77
2018-04-18T07:10:54.006Z,10.23
2018-04-18T07:13:21.454Z,10.20
2018-04-18T07:15:48.943Z,11.38
2018-04-18T07:18:16.389Z,10.65
2018-04-18T07:20:43.851Z,9.88
2018-04-18T07:23:11.317Z,11.82
2018-04-18T07:25:38.765Z,10.32
2018-04-18T07:28:06.209Z,11.82
2018-04-18T07:30:34.451Z,10.63
2018-04-18T07:33:01.900Z,11.02
2018-04-18T07:35:29.360Z,10.63
2018-04-18T07:37:56.828Z,10.35
2018-04-18T07:40:24.280Z,9.90
2018-04-18T07:42:51.742Z,11.45
2018-04-18T07:45:19.201Z,11.63
2018-04-18T07:47:46.675Z,10.88
2018-04-18T07:50:14.126Z,11.35
2018-04-18T07:52:41.572Z,10.32
2018-04-18T07:55:09.025Z,9.63
2018-04-18T07:57:36.487Z,9.68
2018-04-18T08:00:03.936Z,9.57
2018-04-18T08:02:31.389Z,9.00
2018-04-18T08:04:59.625Z,9.73
2018-04-18T08:07:27.090Z,10.02
2018-04-18T08:09:54.547Z,9.05
2018-04-18T08:12:21.996Z,9.60
2018-04-18T08:14:49.457Z,9.50
2018-04-18T08:17:16.903Z,9.55
2018-04-18T08:19:44.379Z,8.82
2018-04-18T08:22:11.816Z,8.93
2018-04-18T08:24:40.037Z,9.27
2018-04-18T08:27:07.474Z,8.40
2018-04-18T08:29:34.921Z,8.65
2018-04-18T08:32:02.385Z,7.60
2018-04-18T08:34:29.868Z,8.73
2018-04-18T08:36:57.338Z,8.10
2018-04-18T08:39:24.788Z,8.23
2018-04-18T08:41:52.239Z,8.50
2018-04-18T08:44:19.695Z,9.60
2018-04-18T08:46:47.134Z,9.05
2018-04-18T08:49:15.351Z,8.77
2018-04-18T08:51:43.653Z,12.15
2018-04-18T08:54:11.113Z,8.70
2018-04-18T08:56:38.569Z,8.88
2018-04-18T08:59:06.022Z,8.10
2018-04-18T09:01:33.488Z,7.85
2018-04-18T09:04:00.949Z,10.23
2018-04-18T09:06:28.426Z,10.30
2018-04-18T09:08:55.872Z,8.82
2018-04-18T09:11:23.348Z,8.55
2018-04-18T09:13:50.793Z,8.57
2018-04-18T09:16:19.026Z,7.90
2018-04-18T09:18:46.464Z,7.62
2018-04-18T09:21:13.925Z,7.97
2018-04-18T09:23:41.359Z,8.40
2018-04-18T09:26:08.800Z,7.35
2018-04-18T09:28:36.280Z,7.70
2018-04-18T09:31:03.725Z,8.15
2018-04-18T09:33:31.937Z,7.50
2018-04-18T09:35:59.390Z,7.15
2018-04-18T09:38:26.855Z,7.37
2018-04-18T09:40:54.290Z,7.47
2018-04-18T09:43:22.520Z,7.85
2018-04-18T09:45:49.974Z,7.95
2018-04-18T09:48:17.445Z,7.85
2018-04-18T09:50:44.893Z,7.28
2018-04-18T09:53:12.348Z,6.85
2018-04-18T09:55:39.806Z,7.50
2018-04-18T09:58:07.249Z,6.45
2018-04-18T10:00:40.237Z,6.37
2018-04-18T10:03:07.701Z,6.45
2018-04-18T10:05:35.909Z,6.25
2018-04-18T10:08:03.373Z,5.82
2018-04-18T10:10:30.823Z,6.68
2018-04-18T10:12:58.265Z,6.35
2018-04-18T10:15:25.735Z,5.82
2018-04-18T10:17:53.194Z,6.28
2018-04-18T10:20:21.422Z,6.43
2018-04-18T10:22:48.899Z,6.25
2018-04-18T10:25:16.335Z,5.43
2018-04-18T10:27:43.827Z,5.12
2018-04-18T10:30:11.277Z,5.72
2018-04-18T10:32:38.737Z,6.00
2018-04-18T10:35:06.196Z,5.37
2018-04-18T10:37:33.661Z,4.80
2018-04-18T10:40:01.108Z,5.50
2018-04-18T10:42:28.540Z,5.00
2018-04-18T10:44:55.992Z,4.47
2018-04-18T10:47:23.424Z,5.40
2018-04-18T10:49:50.881Z,4.55
2018-04-18T10:52:18.331Z,4.82
2018-04-18T10:54:45.782Z,4.93
2018-04-18T10:57:13.243Z,4.70
2018-04-18T10:59:40.698Z,4.55
2018-04-18T11:02:08.150Z,4.90
2018-04-18T11:04:35.599Z,4.97
2018-04-18T11:07:03.034Z,5.18
2018-04-18T11:09:31.257Z,5.43
2018-04-18T11:11:58.711Z,4.28
2018-04-18T11:14:26.177Z,3.90
2018-04-18T11:16:55.595Z,3.85
2018-04-18T11:19:23.045Z,3.37
2018-04-18T11:21:50.504Z,2.87
2018-04-18T11:24:17.971Z,2.65
2018-04-18T11:26:45.432Z,3.25
2018-04-18T11:29:12.897Z,2.97
2018-04-18T11:31:40.401Z,3.15
2018-04-18T11:34:07.868Z,2.65
2018-04-18T11:36:35.362Z,2.78
2018-04-18T11:39:03.600Z,2.70
2018-04-18T11:41:31.048Z,3.10
2018-04-18T11:43:58.517Z,3.08
2018-04-18T11:46:25.988Z,2.60
2018-04-18T11:48:53.448Z,2.60
2018-04-18T11:51:20.912Z,2.37
2018-04-18T11:53:48.361Z,2.70
2018-04-18T12:02:01.956Z,2.60
2018-04-18T12:04:30.198Z,2.30
2018-04-18T12:06:57.635Z,2.55
2018-04-18T12:09:25.108Z,2.70
2018-04-18T12:11:52.569Z,2.95
2018-04-18T12:14:19.996Z,2.40
2018-04-18T12:16:48.206Z,2.12
2018-04-18T12:19:16.417Z,2.70
2018-04-18T12:21:43.892Z,2.50
2018-04-18T12:24:11.371Z,2.53
2018-04-18T12:26:38.874Z,2.05
2018-04-18T12:29:07.157Z,1.87
2018-04-18T12:31:34.613Z,2.40
2018-04-18T12:34:02.824Z,2.25
2018-04-18T12:36:30.279Z,2.25
2018-04-18T12:38:57.739Z,2.03
2018-04-18T12:41:26.360Z,2.30
2018-04-18T12:43:53.805Z,2.25
2018-04-18T12:46:21.265Z,2.72
2018-04-18T12:48:48.756Z,2.53
2018-04-18T12:51:16.243Z,2.10
2018-04-18T12:53:43.685Z,2.37
2018-04-18T12:56:11.923Z,2.17
2018-04-18T12:58:39.375Z,2.33
2018-04-18T13:01:06.844Z,2.42
2018-04-18T13:03:35.122Z,1.77
2018-04-18T13:06:02.690Z,2.03
2018-04-18T13:08:30.151Z,2.28
2018-04-18T13:10:57.625Z,2.30
2018-04-18T13:13:25.073Z,1.80
2018-04-18T13:15:52.529Z,1.83
2018-04-18T13:18:20.019Z,2.33
2018-04-18T13:20:47.433Z,1.92
2018-04-18T13:23:14.909Z,1.62
2018-04-18T13:25:42.380Z,1.73
2018-04-18T13:28:09.839Z,2.17
2018-04-18T13:30:37.282Z,2.10
2018-04-18T13:33:04.767Z,1.90
2018-04-18T13:35:32.215Z,2.15
2018-04-18T13:37:59.785Z,1.60
2018-04-18T13:40:27.219Z,2.40
2018-04-18T13:42:55.472Z,2.20
2018-04-18T13:45:24.631Z,2.10
2018-04-18T13:47:52.112Z,1.73
2018-04-18T13:50:19.572Z,1.92
2018-04-18T13:52:47.035Z,2.20
2018-04-18T13:55:14.492Z,2.20
2018-04-18T13:57:41.962Z,2.22
2018-04-18T14:00:09.415Z,2.10
2018-04-18T14:02:36.883Z,1.92
2018-04-18T14:05:04.327Z,2.10
2018-04-18T14:07:31.788Z,2.60
2018-04-18T14:09:59.213Z,2.45
2018-04-18T14:12:27.432Z,1.90
2018-04-18T14:14:55.649Z,2.10
2018-04-18T14:17:23.109Z,2.15
2018-04-18T14:19:50.557Z,2.10
2018-04-18T14:22:18.003Z,1.85
2018-04-18T14:24:45.447Z,2.28
2018-04-18T14:27:12.894Z,1.87
2018-04-18T14:29:41.099Z,1.80
2018-04-18T14:32:08.572Z,1.83
2018-04-18T14:34:35.994Z,1.60
2018-04-18T14:37:04.213Z,1.85
2018-04-18T14:39:31.675Z,1.75
2018-04-18T14:41:59.110Z,1.60
2018-04-18T14:44:26.560Z,1.50
2018-04-18T14:46:54.771Z,1.92
2018-04-18T14:49:22.977Z,1.60
2018-04-18T14:51:50.443Z,1.83
2018-04-18T14:54:17.893Z,1.80
2018-04-18T14:56:45.325Z,2.10
2018-04-18T14:59:12.777Z,1.73
2018-04-18T15:01:40.229Z,1.70
2018-04-18T15:04:08.457Z,1.50
2018-04-18T15:06:35.898Z,1.98
2018-04-18T15:09:03.365Z,1.90
2018-04-18T15:11:30.802Z,2.00
2018-04-18T15:13:58.244Z,1.80
2018-04-18T15:16:26.475Z,1.60
2018-04-18T15:18:53.907Z,1.55
2018-04-18T15:21:21.349Z,1.87
2018-04-18T15:23:49.569Z,1.48
2018-04-18T15:26:17.032Z,1.58
2018-04-18T15:28:44.483Z,1.55
2018-04-18T15:31:11.957Z,1.50
2018-04-18T15:33:41.069Z,1.70
2018-04-18T15:36:08.668Z,1.80
2018-04-18T15:38:36.131Z,1.80
2018-04-18T15:41:03.581Z,1.85
2018-04-18T15:43:31.027Z,1.30
2018-04-18T15:45:58.489Z,1.70
2018-04-18T15:48:25.937Z,1.60
2018-04-18T15:50:53.951Z,2.05
2018-04-18T15:53:21.417Z,1.62
2018-04-18T15:55:48.868Z,1.55
2018-04-18T15:58:16.320Z,1.75
2018-04-18T16:00:43.770Z,1.58
2018-04-18T16:03:11.212Z,1.65
2018-04-18T16:05:38.681Z,1.87
2018-04-18T16:08:06.152Z,1.83
2018-04-18T16:10:33.604Z,1.98
2018-04-18T16:13:01.069Z,1.65
2018-04-18T16:15:28.536Z,1.83
2018-04-18T16:17:55.966Z,1.77
2018-04-18T16:20:24.288Z,1.80
2018-04-18T16:22:51.716Z,1.65
2018-04-18T16:25:19.196Z,1.52
2018-04-18T16:27:46.634Z,1.30
2018-04-18T16:30:26.659Z,1.92
2018-04-18T16:32:54.128Z,1.90
2018-04-18T16:35:22.372Z,1.98
2018-04-18T16:37:49.818Z,1.60
2018-04-18T16:40:17.280Z,1.85
2018-04-18T16:42:44.749Z,1.37
2018-04-18T16:45:12.206Z,1.73
2018-04-18T16:47:39.664Z,1.62
2018-04-18T16:50:07.876Z,2.33
2018-04-18T16:52:35.322Z,2.72
2018-04-18T16:55:02.760Z,2.60
2018-04-18T16:57:30.225Z,1.90
2018-04-18T16:59:57.678Z,1.85
2018-04-18T17:02:25.132Z,2.20
2018-04-18T17:04:52.575Z,1.95
2018-04-18T17:07:20.055Z,1.80
2018-04-18T17:09:48.277Z,2.00
2018-04-18T17:12:15.744Z,1.60
2018-04-18T17:14:43.520Z,2.00
2018-04-18T17:17:10.969Z,2.30
2018-04-18T17:19:38.435Z,2.00
2018-04-18T17:22:05.873Z,1.80
2018-04-18T17:24:33.314Z,2.08
2018-04-18T17:27:00.835Z,2.10
2018-04-18T17:29:28.238Z,1.85
2018-04-18T17:31:56.509Z,1.90
2018-04-18T17:34:24.725Z,2.00
2018-04-18T17:36:52.178Z,2.42
2018-04-18T17:39:19.620Z,2.33
2018-04-18T17:41:47.849Z,1.90
2018-04-18T17:44:15.308Z,1.90
2018-04-18T17:46:42.775Z,2.30
2018-04-18T17:49:10.225Z,2.15
2018-04-18T17:51:37.660Z,2.17
2018-04-18T17:54:05.121Z,2.10
2018-04-18T17:56:32.558Z,2.05
2018-04-18T17:59:00.012Z,2.00
2018-04-18T18:01:27.461Z,1.83
2018-04-18T18:03:54.907Z,1.98
2018-04-18T18:06:22.399Z,2.40
2018-04-18T18:08:49.792Z,2.30
2018-04-18T18:11:17.236Z,2.60
2018-04-18T18:13:45.461Z,3.70
2018-04-18T18:16:12.909Z,2.70
2018-04-18T18:18:40.360Z,3.47
2018-04-18T18:21:08.583Z,3.60
2018-04-18T18:23:36.061Z,3.30
2018-04-18T18:26:03.504Z,4.37
2018-04-18T18:28:30.972Z,6.40
2018-04-18T18:30:58.415Z,4.72
2018-04-18T18:33:25.892Z,4.65
2018-04-18T18:38:43.843Z,4.00
2018-04-18T18:41:11.280Z,3.25
2018-04-18T18:43:38.738Z,3.70
2018-04-18T18:46:06.167Z,4.90
2018-04-18T18:48:34.388Z,6.45
2018-04-18T18:51:01.848Z,5.22
2018-04-18T18:53:29.301Z,3.80
2018-04-18T18:55:56.736Z,2.53
2018-04-18T18:58:24.943Z,2.30
2018-04-18T19:00:52.401Z,2.08
2018-04-18T19:03:19.845Z,2.35
2018-04-18T19:05:48.059Z,2.12
2018-04-18T19:08:15.560Z,2.33
2018-04-18T19:10:42.952Z,2.10
2018-04-18T19:13:11.156Z,2.12
2018-04-18T19:15:38.655Z,2.58
2018-04-18T19:18:06.036Z,3.80
2018-04-18T19:20:34.253Z,3.30
2018-04-18T19:23:01.692Z,1.87
2018-04-18T19:25:29.917Z,2.10
2018-04-18T19:27:57.347Z,2.45
2018-04-18T19:30:24.802Z,1.90
2018-04-18T19:32:53.098Z,1.95
2018-04-18T19:35:20.537Z,2.53
2018-04-18T19:37:47.983Z,1.83
2018-04-18T19:40:15.453Z,2.20
2018-04-18T19:42:42.904Z,2.30
2018-04-18T19:45:10.353Z,1.98
2018-04-18T19:47:37.827Z,2.20
2018-04-18T19:50:05.275Z,2.33
2018-04-18T19:52:32.725Z,2.10
2018-04-18T19:55:00.177Z,2.10
2018-04-18T19:57:27.621Z,2.47
2018-04-18T19:59:55.065Z,2.17
2018-04-18T20:02:22.509Z,2.15
2018-04-18T20:04:49.970Z,2.47
2018-04-18T20:07:17.429Z,2.50
2018-04-18T20:09:44.888Z,2.60
2018-04-18T20:12:12.334Z,2.17
2018-04-18T20:14:39.792Z,2.00
2018-04-18T20:17:07.253Z,2.12
2018-04-18T20:19:34.688Z,2.03
2018-04-18T20:22:02.161Z,2.50
2018-04-18T20:24:29.588Z,2.50
2018-04-18T20:26:57.042Z,2.20
2018-04-18T20:29:25.241Z,2.53
2018-04-18T20:31:52.698Z,2.30
2018-04-18T20:34:20.154Z,2.40
2018-04-18T20:36:51.119Z,2.30
2018-04-18T20:39:18.559Z,2.25
2018-04-18T20:41:53.843Z,2.17
2018-04-18T20:44:21.272Z,2.50
2018-04-18T20:46:48.719Z,2.45
2018-04-18T20:49:16.943Z,2.30
2018-04-18T20:51:44.391Z,2.45
2018-04-18T20:54:11.832Z,2.90
2018-04-18T20:56:39.281Z,2.40
2018-04-18T20:59:07.498Z,2.65
2018-04-18T21:01:34.945Z,2.78
2018-04-18T21:04:02.380Z,2.50
2018-04-18T21:06:30.590Z,2.70
2018-04-18T21:08:58.039Z,3.08
2018-04-18T21:11:25.486Z,2.67
2018-04-18T21:13:53.690Z,2.90
2018-04-18T21:16:21.133Z,2.50
2018-04-18T21:18:49.334Z,3.12
2018-04-18T21:21:16.784Z,2.47
2018-04-18T21:23:44.224Z,2.50
2018-04-18T21:26:12.447Z,2.85
2018-04-18T21:28:39.884Z,2.47
2018-04-18T21:31:07.340Z,2.50
2018-04-18T21:33:35.567Z,3.00
2018-04-18T21:36:03.019Z,3.00
2018-04-18T21:38:30.521Z,3.00
2018-04-18T21:40:57.913Z,3.40
2018-04-18T21:43:25.369Z,3.55
2018-04-18T21:45:53.592Z,3.28
2018-04-18T21:48:21.039Z,3.15
2018-04-18T21:50:48.497Z,3.40
2018-04-18T21:53:15.936Z,2.95
2018-04-18T21:55:43.387Z,3.00
2018-04-18T21:58:11.590Z,3.12
2018-04-18T22:00:39.060Z,3.30
2018-04-18T22:03:06.509Z,3.33
2018-04-18T22:05:33.961Z,3.20
2018-04-18T22:08:02.173Z,3.08
2018-04-18T22:10:29.609Z,3.40
2018-04-18T22:12:57.063Z,3.17
2018-04-18T22:15:25.267Z,3.20
2018-04-18T22:17:52.734Z,3.17
2018-04-18T22:20:20.168Z,3.80
2018-04-18T22:22:48.399Z,3.60
2018-04-18T22:25:15.837Z,3.65
2018-04-18T22:27:43.288Z,3.58
2018-04-18T22:30:10.729Z,3.75
2018-04-18T22:32:38.933Z,3.10
2018-04-18T22:35:06.375Z,3.20
2018-04-18T22:37:34.580Z,3.58
2018-04-18T22:40:02.016Z,3.20
2018-04-18T22:42:30.233Z,3.35
2018-04-18T22:44:57.683Z,3.05
2018-04-18T22:47:25.126Z,3.20
2018-04-18T22:49:52.563Z,3.28
2018-04-18T22:52:20.786Z,3.60
2018-04-18T22:54:48.229Z,3.72
2018-04-18T22:57:15.680Z,5.37
2018-04-18T22:59:43.895Z,5.15
2018-04-18T23:02:12.103Z,5.18
2018-04-18T23:04:39.552Z,5.12
2018-04-18T23:07:06.993Z,4.75
2018-04-18T23:09:34.473Z,5.07
2018-04-18T23:12:01.918Z,4.87
2018-04-18T23:14:29.364Z,5.50
2018-04-18T23:16:56.804Z,5.55
2018-04-18T23:19:25.037Z,6.03
2018-04-18T23:21:52.479Z,5.75
2018-04-18T23:24:19.936Z,5.65
2018-04-18T23:26:48.137Z,5.35
2018-04-18T23:29:15.589Z,5.90
2018-04-18T23:31:43.028Z,5.40
2018-04-18T23:34:10.522Z,5.70
2018-04-18T23:36:37.927Z,5.93
2018-04-18T23:39:05.380Z,5.50
2018-04-18T23:41:32.821Z,5.60
2018-04-18T23:44:00.254Z,5.72
2018-04-18T23:46:27.696Z,5.35
2018-04-18T23:48:55.146Z,5.03
2018-04-18T23:51:22.576Z,5.00
2018-04-18T23:53:50.016Z,4.50
2018-04-18T23:56:17.452Z,5.20
2018-04-18T23:58:44.941Z,5.12
